sensor_id;sensor_type;location;lat;lon;timestamp;temperature;humidity
61374;DHT22;47242;48.158;-1.586;2023-01-30T05:31:11;7.60;82.70
61374;DHT22;47242;48.158;-1.586;2023-01-30T05:33:38;7.60;82.80
61374;DHT22;47242;48.158;-1.586;2023-01-30T05:36:04;7.60;82.90
61374;DHT22;47242;48.158;-1.586;2023-01-30T05:38:30;7.70;82.90
61374;DHT22;47242;48.158;-1.586;2023-01-30T05:41:03;7.70;83.00
61374;DHT22;47242;48.158;-1.586;2023-01-30T05:43:30;7.70;83.00
61374;DHT22;47242;48.158;-1.586;2023-01-30T05:45:57;7.70;82.70
61374;DHT22;47242;48.158;-1.586;2023-01-30T05:48:23;7.80;82.60
61374;DHT22;47242;48.158;-1.586;2023-01-30T05:50:50;7.80;82.50
61374;DHT22;47242;48.158;-1.586;2023-01-30T05:53:20;7.80;82.30
61374;DHT22;47242;48.158;-1.586;2023-01-30T05:55:46;7.80;82.50
61374;DHT22;47242;48.158;-1.586;2023-01-30T05:58:20;7.80;82.50
61374;DHT22;47242;48.158;-1.586;2023-01-30T06:00:46;7.90;82.50
61374;DHT22;47242;48.158;-1.586;2023-01-30T06:03:12;7.80;82.40
61374;DHT22;47242;48.158;-1.586;2023-01-30T06:05:37;7.90;82.40
61374;DHT22;47242;48.158;-1.586;2023-01-30T06:08:03;7.90;82.30
61374;DHT22;47242;48.158;-1.586;2023-01-30T06:10:29;7.90;82.20
61374;DHT22;47242;48.158;-1.586;2023-01-30T06:12:55;7.90;82.20
61374;DHT22;47242;48.158;-1.586;2023-01-30T06:15:23;7.90;82.30
61374;DHT22;47242;48.158;-1.586;2023-01-30T06:17:48;7.90;82.30
61374;DHT22;47242;48.158;-1.586;2023-01-30T06:20:14;7.90;82.20
61374;DHT22;47242;48.158;-1.586;2023-01-30T06:23:27;7.90;82.20
61374;DHT22;47242;48.158;-1.586;2023-01-30T06:25:53;7.90;82.20
61374;DHT22;47242;48.158;-1.586;2023-01-30T06:46:47;8.00;82.30
61374;DHT22;47242;48.158;-1.586;2023-01-30T06:49:23;8.00;82.30
61374;DHT22;47242;48.158;-1.586;2023-01-30T06:51:48;8.00;82.30
61374;DHT22;47242;48.158;-1.586;2023-01-30T06:54:17;7.90;82.40
61374;DHT22;47242;48.158;-1.586;2023-01-30T06:56:43;7.90;82.60
61374;DHT22;47242;48.158;-1.586;2023-01-30T06:59:08;7.90;82.60
61374;DHT22;47242;48.158;-1.586;2023-01-30T07:01:34;7.90;82.70
61374;DHT22;47242;48.158;-1.586;2023-01-30T07:04:00;7.90;82.70
61374;DHT22;47242;48.158;-1.586;2023-01-30T07:06:28;7.90;82.70
61374;DHT22;47242;48.158;-1.586;2023-01-30T07:08:57;7.90;82.70
61374;DHT22;47242;48.158;-1.586;2023-01-30T07:11:26;7.90;82.70
61374;DHT22;47242;48.158;-1.586;2023-01-30T07:13:52;7.90;82.60
61374;DHT22;47242;48.158;-1.586;2023-01-30T07:16:17;8.00;82.60
61374;DHT22;47242;48.158;-1.586;2023-01-30T07:18:43;7.90;82.70
61374;DHT22;47242;48.158;-1.586;2023-01-30T07:21:09;8.00;82.50
61374;DHT22;47242;48.158;-1.586;2023-01-30T07:23:37;8.00;82.40
61374;DHT22;47242;48.158;-1.586;2023-01-30T07:26:04;8.00;82.50
61374;DHT22;47242;48.158;-1.586;2023-01-30T07:28:30;8.00;82.40
61374;DHT22;47242;48.158;-1.586;2023-01-30T07:30:59;8.10;82.40
61374;DHT22;47242;48.158;-1.586;2023-01-30T07:33:25;8.10;82.30
61374;DHT22;47242;48.158;-1.586;2023-01-30T07:35:51;8.10;82.30
61374;DHT22;47242;48.158;-1.586;2023-01-30T07:38:17;8.10;82.30
61374;DHT22;47242;48.158;-1.586;2023-01-30T07:40:43;8.10;82.30
61374;DHT22;47242;48.158;-1.586;2023-01-30T07:43:11;8.10;82.40
61374;DHT22;47242;48.158;-1.586;2023-01-30T07:45:47;8.00;82.50
61374;DHT22;47242;48.158;-1.586;2023-01-30T07:48:15;8.10;82.40
61374;DHT22;47242;48.158;-1.586;2023-01-30T07:50:41;8.10;82.50
61374;DHT22;47242;48.158;-1.586;2023-01-30T07:53:11;8.10;82.40
61374;DHT22;47242;48.158;-1.586;2023-01-30T07:55:37;8.10;82.30
61374;DHT22;47242;48.158;-1.586;2023-01-30T07:58:03;8.10;82.70
61374;DHT22;47242;48.158;-1.586;2023-01-30T08:00:29;8.10;82.60
61374;DHT22;47242;48.158;-1.586;2023-01-30T08:02:55;8.20;82.60
61374;DHT22;47242;48.158;-1.586;2023-01-30T08:05:21;8.10;82.60
61374;DHT22;47242;48.158;-1.586;2023-01-30T08:07:47;8.20;82.60
61374;DHT22;47242;48.158;-1.586;2023-01-30T08:10:13;8.20;82.60
61374;DHT22;47242;48.158;-1.586;2023-01-30T08:12:41;8.20;82.40
61374;DHT22;47242;48.158;-1.586;2023-01-30T08:15:08;8.30;82.40
61374;DHT22;47242;48.158;-1.586;2023-01-30T08:17:34;8.30;82.20
61374;DHT22;47242;48.158;-1.586;2023-01-30T08:20:00;8.30;82.10
61374;DHT22;47242;48.158;-1.586;2023-01-30T08:22:26;8.30;82.30
61374;DHT22;47242;48.158;-1.586;2023-01-30T08:24:52;8.20;82.30
61374;DHT22;47242;48.158;-1.586;2023-01-30T08:27:18;8.30;82.40
61374;DHT22;47242;48.158;-1.586;2023-01-30T08:29:43;8.30;82.60
61374;DHT22;47242;48.158;-1.586;2023-01-30T08:32:09;8.30;82.60
61374;DHT22;47242;48.158;-1.586;2023-01-30T08:34:35;8.40;82.40
61374;DHT22;47242;48.158;-1.586;2023-01-30T08:37:01;8.40;82.50
61374;DHT22;47242;48.158;-1.586;2023-01-30T08:39:27;8.40;82.30
61374;DHT22;47242;48.158;-1.586;2023-01-30T08:41:53;8.50;82.40
61374;DHT22;47242;48.158;-1.586;2023-01-30T08:44:18;8.50;82.40
61374;DHT22;47242;48.158;-1.586;2023-01-30T08:46:44;8.50;82.50
61374;DHT22;47242;48.158;-1.586;2023-01-30T08:49:10;8.50;82.50
61374;DHT22;47242;48.158;-1.586;2023-01-30T08:51:36;8.50;82.50
61374;DHT22;47242;48.158;-1.586;2023-01-30T08:54:01;8.50;82.50
61374;DHT22;47242;48.158;-1.586;2023-01-30T08:56:27;8.60;82.50
61374;DHT22;47242;48.158;-1.586;2023-01-30T08:58:52;8.60;82.50
61374;DHT22;47242;48.158;-1.586;2023-01-30T09:01:18;8.60;82.60
61374;DHT22;47242;48.158;-1.586;2023-01-30T09:03:44;8.60;82.80
61374;DHT22;47242;48.158;-1.586;2023-01-30T09:06:10;8.70;82.60
61374;DHT22;47242;48.158;-1.586;2023-01-30T09:08:35;8.80;82.60
61374;DHT22;47242;48.158;-1.586;2023-01-30T09:11:03;8.80;82.60
61374;DHT22;47242;48.158;-1.586;2023-01-30T09:13:29;8.80;82.50
61374;DHT22;47242;48.158;-1.586;2023-01-30T09:15:56;8.90;82.30
61374;DHT22;47242;48.158;-1.586;2023-01-30T09:18:22;8.90;82.20
61374;DHT22;47242;48.158;-1.586;2023-01-30T09:20:48;9.00;82.30
61374;DHT22;47242;48.158;-1.586;2023-01-30T09:23:13;9.00;82.30
61374;DHT22;47242;48.158;-1.586;2023-01-30T09:25:39;9.10;82.40
61374;DHT22;47242;48.158;-1.586;2023-01-30T09:28:06;9.20;82.30
61374;DHT22;47242;48.158;-1.586;2023-01-30T09:30:32;9.20;82.30
61374;DHT22;47242;48.158;-1.586;2023-01-30T09:32:58;9.20;82.20
61374;DHT22;47242;48.158;-1.586;2023-01-30T09:35:24;9.20;82.20
61374;DHT22;47242;48.158;-1.586;2023-01-30T09:37:51;9.30;82.20
61374;DHT22;47242;48.158;-1.586;2023-01-30T09:40:22;9.30;82.30
61374;DHT22;47242;48.158;-1.586;2023-01-30T09:43:10;9.50;82.00
61374;DHT22;47242;48.158;-1.586;2023-01-30T09:49:04;9.80;81.60
61374;DHT22;47242;48.158;-1.586;2023-01-30T09:54:25;10.10;81.10
61374;DHT22;47242;48.158;-1.586;2023-01-30T09:57:17;10.10;81.00
61374;DHT22;47242;48.158;-1.586;2023-01-30T10:00:03;10.00;81.00
61374;DHT22;47242;48.158;-1.586;2023-01-30T10:08:27;9.70;81.70
61374;DHT22;47242;48.158;-1.586;2023-01-30T10:27:52;9.70;82.50
61374;DHT22;47242;48.158;-1.586;2023-01-30T10:30:20;9.70;82.60
61374;DHT22;47242;48.158;-1.586;2023-01-30T10:33:14;9.70;82.70
61374;DHT22;47242;48.158;-1.586;2023-01-30T10:35:43;9.80;83.00
61374;DHT22;47242;48.158;-1.586;2023-01-30T10:38:20;9.80;82.80
61374;DHT22;47242;48.158;-1.586;2023-01-30T10:40:58;9.90;82.80
61374;DHT22;47242;48.158;-1.586;2023-01-30T10:43:31;10.00;82.80
61374;DHT22;47242;48.158;-1.586;2023-01-30T10:48:47;10.00;82.80
61374;DHT22;47242;48.158;-1.586;2023-01-30T10:54:28;9.90;83.20
61374;DHT22;47242;48.158;-1.586;2023-01-30T10:59:52;9.90;83.20
61374;DHT22;47242;48.158;-1.586;2023-01-30T11:02:24;10.00;83.20
61374;DHT22;47242;48.158;-1.586;2023-01-30T11:04:58;10.10;83.00
61374;DHT22;47242;48.158;-1.586;2023-01-30T11:07:28;10.10;83.00
61374;DHT22;47242;48.158;-1.586;2023-01-30T11:09:57;10.20;83.00
61374;DHT22;47242;48.158;-1.586;2023-01-30T11:12:22;10.20;82.90
61374;DHT22;47242;48.158;-1.586;2023-01-30T11:14:53;10.20;82.90
61374;DHT22;47242;48.158;-1.586;2023-01-30T11:17:26;10.30;83.00
61374;DHT22;47242;48.158;-1.586;2023-01-30T11:19:57;10.30;83.00
61374;DHT22;47242;48.158;-1.586;2023-01-30T11:22:26;10.30;83.00
61374;DHT22;47242;48.158;-1.586;2023-01-30T11:25:01;10.40;82.90
61374;DHT22;47242;48.158;-1.586;2023-01-30T11:27:30;10.50;82.70
61374;DHT22;47242;48.158;-1.586;2023-01-30T11:30:16;10.50;82.70
61374;DHT22;47242;48.158;-1.586;2023-01-30T11:32:43;10.60;83.00
61374;DHT22;47242;48.158;-1.586;2023-01-30T11:37:40;10.80;82.80
61374;DHT22;47242;48.158;-1.586;2023-01-30T11:42:48;10.90;82.80
61374;DHT22;47242;48.158;-1.586;2023-01-30T11:45:15;10.90;82.50
61374;DHT22;47242;48.158;-1.586;2023-01-30T11:47:55;10.90;82.60
61374;DHT22;47242;48.158;-1.586;2023-01-30T11:50:23;11.00;82.60
61374;DHT22;47242;48.158;-1.586;2023-01-30T11:52:51;11.10;82.60
61374;DHT22;47242;48.158;-1.586;2023-01-30T11:55:18;11.10;82.70
61374;DHT22;47242;48.158;-1.586;2023-01-30T11:57:56;11.20;82.60
61374;DHT22;47242;48.158;-1.586;2023-01-30T12:00:42;11.20;82.50
61374;DHT22;47242;48.158;-1.586;2023-01-30T12:03:13;11.20;83.00
61374;DHT22;47242;48.158;-1.586;2023-01-30T12:05:41;11.30;82.80
61374;DHT22;47242;48.158;-1.586;2023-01-30T12:08:24;11.40;82.80
61374;DHT22;47242;48.158;-1.586;2023-01-30T12:10:57;11.40;82.90
61374;DHT22;47242;48.158;-1.586;2023-01-30T12:13:36;11.30;83.00
61374;DHT22;47242;48.158;-1.586;2023-01-30T12:16:24;11.30;83.30
61374;DHT22;47242;48.158;-1.586;2023-01-30T12:21:45;11.20;83.20
61374;DHT22;47242;48.158;-1.586;2023-01-30T12:24:27;11.20;83.50
61374;DHT22;47242;48.158;-1.586;2023-01-30T12:27:04;11.20;83.40
61374;DHT22;47242;48.158;-1.586;2023-01-30T12:29:36;11.20;83.50
61374;DHT22;47242;48.158;-1.586;2023-01-30T12:34:32;11.20;83.90
61374;DHT22;47242;48.158;-1.586;2023-01-30T12:40:09;11.50;83.90
61374;DHT22;47242;48.158;-1.586;2023-01-30T12:45:30;11.90;83.10
61374;DHT22;47242;48.158;-1.586;2023-01-30T12:56:09;12.20;82.20
61374;DHT22;47242;48.158;-1.586;2023-01-30T13:04:28;12.10;82.50
61374;DHT22;47242;48.158;-1.586;2023-01-30T13:12:51;11.90;82.40
61374;DHT22;47242;48.158;-1.586;2023-01-30T13:18:17;11.90;82.70
61374;DHT22;47242;48.158;-1.586;2023-01-30T13:21:00;11.80;82.90
61374;DHT22;47242;48.158;-1.586;2023-01-30T13:23:49;11.80;83.10
61374;DHT22;47242;48.158;-1.586;2023-01-30T13:26:21;11.80;83.10
61374;DHT22;47242;48.158;-1.586;2023-01-30T13:28:52;11.80;83.10
61374;DHT22;47242;48.158;-1.586;2023-01-30T13:31:24;11.90;83.00
61374;DHT22;47242;48.158;-1.586;2023-01-30T13:34:06;12.00;83.00
61374;DHT22;47242;48.158;-1.586;2023-01-30T13:36:51;12.00;83.20
61374;DHT22;47242;48.158;-1.586;2023-01-30T13:39:27;12.00;83.30
61374;DHT22;47242;48.158;-1.586;2023-01-30T13:41:55;12.10;83.30
61374;DHT22;47242;48.158;-1.586;2023-01-30T13:44:30;12.20;83.10
61374;DHT22;47242;48.158;-1.586;2023-01-30T13:47:24;12.40;83.10
61374;DHT22;47242;48.158;-1.586;2023-01-30T13:53:08;12.70;82.70
61374;DHT22;47242;48.158;-1.586;2023-01-30T13:55:54;12.70;82.60
61374;DHT22;47242;48.158;-1.586;2023-01-30T13:58:38;12.50;82.90
61374;DHT22;47242;48.158;-1.586;2023-01-30T14:01:09;12.30;83.00
61374;DHT22;47242;48.158;-1.586;2023-01-30T14:03:39;12.30;82.90
61374;DHT22;47242;48.158;-1.586;2023-01-30T14:06:25;12.40;83.00
61374;DHT22;47242;48.158;-1.586;2023-01-30T14:08:54;12.50;82.90
61374;DHT22;47242;48.158;-1.586;2023-01-30T14:16:47;12.30;83.00
61374;DHT22;47242;48.158;-1.586;2023-01-30T14:19:30;12.30;83.60
61374;DHT22;47242;48.158;-1.586;2023-01-30T14:21:59;12.30;83.70
61374;DHT22;47242;48.158;-1.586;2023-01-30T14:24:26;12.20;84.00
61374;DHT22;47242;48.158;-1.586;2023-01-30T14:26:58;12.20;84.10
61374;DHT22;47242;48.158;-1.586;2023-01-30T14:45:58;12.30;83.90
61374;DHT22;47242;48.158;-1.586;2023-01-30T14:54:20;12.20;84.20
61374;DHT22;47242;48.158;-1.586;2023-01-30T15:07:23;12.20;83.90
61374;DHT22;47242;48.158;-1.586;2023-01-30T15:12:54;12.10;83.90
61374;DHT22;47242;48.158;-1.586;2023-01-30T15:31:36;11.90;84.20
61374;DHT22;47242;48.158;-1.586;2023-01-30T15:34:02;11.90;84.20
61374;DHT22;47242;48.158;-1.586;2023-01-30T15:36:42;11.90;84.10
61374;DHT22;47242;48.158;-1.586;2023-01-30T15:39:23;12.00;84.00
61374;DHT22;47242;48.158;-1.586;2023-01-30T15:41:49;12.00;84.00
61374;DHT22;47242;48.158;-1.586;2023-01-30T15:47:34;12.10;84.00
61374;DHT22;47242;48.158;-1.586;2023-01-30T15:50:06;12.10;83.90
61374;DHT22;47242;48.158;-1.586;2023-01-30T15:52:44;12.10;83.90
61374;DHT22;47242;48.158;-1.586;2023-01-30T15:55:32;12.00;83.90
61374;DHT22;47242;48.158;-1.586;2023-01-30T15:58:02;12.00;84.00
61374;DHT22;47242;48.158;-1.586;2023-01-30T16:00:31;12.00;84.00
61374;DHT22;47242;48.158;-1.586;2023-01-30T16:02:59;12.00;84.10
61374;DHT22;47242;48.158;-1.586;2023-01-30T16:05:27;11.90;84.00
61374;DHT22;47242;48.158;-1.586;2023-01-30T16:07:54;12.00;84.10
61374;DHT22;47242;48.158;-1.586;2023-01-30T16:10:28;11.90;84.20
61374;DHT22;47242;48.158;-1.586;2023-01-30T16:12:56;11.90;84.10
61374;DHT22;47242;48.158;-1.586;2023-01-30T16:15:27;11.80;84.10
61374;DHT22;47242;48.158;-1.586;2023-01-30T16:18:00;11.80;84.30
61374;DHT22;47242;48.158;-1.586;2023-01-30T16:20:26;11.80;84.30
61374;DHT22;47242;48.158;-1.586;2023-01-30T16:22:52;11.80;84.60
61374;DHT22;47242;48.158;-1.586;2023-01-30T16:25:21;11.70;84.10
61374;DHT22;47242;48.158;-1.586;2023-01-30T16:27:49;11.70;84.00
61374;DHT22;47242;48.158;-1.586;2023-01-30T16:30:24;11.60;83.90
61374;DHT22;47242;48.158;-1.586;2023-01-30T16:32:52;11.40;82.70
61374;DHT22;47242;48.158;-1.586;2023-01-30T16:35:26;11.30;82.80
61374;DHT22;47242;48.158;-1.586;2023-01-30T16:37:54;11.20;82.30
61374;DHT22;47242;48.158;-1.586;2023-01-30T16:40:25;11.20;82.30
61374;DHT22;47242;48.158;-1.586;2023-01-30T16:51:11;10.80;82.20
61374;DHT22;47242;48.158;-1.586;2023-01-30T16:53:35;10.80;82.50
61374;DHT22;47242;48.158;-1.586;2023-01-30T16:56:08;10.80;81.90
61374;DHT22;47242;48.158;-1.586;2023-01-30T16:58:35;10.70;82.10
61374;DHT22;47242;48.158;-1.586;2023-01-30T17:01:06;10.70;82.40
61374;DHT22;47242;48.158;-1.586;2023-01-30T17:03:35;10.60;82.00
61374;DHT22;47242;48.158;-1.586;2023-01-30T17:06:08;10.60;81.70
61374;DHT22;47242;48.158;-1.586;2023-01-30T17:08:51;10.50;82.10
61374;DHT22;47242;48.158;-1.586;2023-01-30T17:16:38;10.40;81.60
61374;DHT22;47242;48.158;-1.586;2023-01-30T17:19:05;10.40;81.60
61374;DHT22;47242;48.158;-1.586;2023-01-30T17:21:41;10.30;81.50
61374;DHT22;47242;48.158;-1.586;2023-01-30T17:24:12;10.30;81.80
61374;DHT22;47242;48.158;-1.586;2023-01-30T17:26:38;10.20;81.50
61374;DHT22;47242;48.158;-1.586;2023-01-30T17:29:04;10.10;81.60
61374;DHT22;47242;48.158;-1.586;2023-01-30T17:31:29;10.20;81.80
61374;DHT22;47242;48.158;-1.586;2023-01-30T17:33:55;10.20;82.10
61374;DHT22;47242;48.158;-1.586;2023-01-30T17:36:45;10.30;81.70
61374;DHT22;47242;48.158;-1.586;2023-01-30T17:39:16;10.20;81.90
61374;DHT22;47242;48.158;-1.586;2023-01-30T17:41:43;10.30;81.90
61374;DHT22;47242;48.158;-1.586;2023-01-30T17:44:09;10.30;81.70
61374;DHT22;47242;48.158;-1.586;2023-01-30T17:46:39;10.30;81.60
61374;DHT22;47242;48.158;-1.586;2023-01-30T17:49:13;10.30;81.50
61374;DHT22;47242;48.158;-1.586;2023-01-30T17:51:38;10.20;81.50
61374;DHT22;47242;48.158;-1.586;2023-01-30T17:54:04;10.20;81.50
61374;DHT22;47242;48.158;-1.586;2023-01-30T17:56:32;10.10;81.50
61374;DHT22;47242;48.158;-1.586;2023-01-30T17:59:06;10.10;81.60
61374;DHT22;47242;48.158;-1.586;2023-01-30T18:01:35;10.10;81.50
61374;DHT22;47242;48.158;-1.586;2023-01-30T18:04:01;10.00;81.50
61374;DHT22;47242;48.158;-1.586;2023-01-30T18:06:27;10.00;81.40
61374;DHT22;47242;48.158;-1.586;2023-01-30T18:08:54;9.90;81.40
61374;DHT22;47242;48.158;-1.586;2023-01-30T18:11:20;9.80;81.50
61374;DHT22;47242;48.158;-1.586;2023-01-30T18:13:45;9.80;81.60
61374;DHT22;47242;48.158;-1.586;2023-01-30T18:16:29;9.80;81.60
61374;DHT22;47242;48.158;-1.586;2023-01-30T18:18:59;9.70;81.70
61374;DHT22;47242;48.158;-1.586;2023-01-30T18:21:28;9.70;81.70
61374;DHT22;47242;48.158;-1.586;2023-01-30T18:23:54;9.70;81.50
61374;DHT22;47242;48.158;-1.586;2023-01-30T18:26:19;9.60;81.30
61374;DHT22;47242;48.158;-1.586;2023-01-30T18:28:46;9.50;81.40
61374;DHT22;47242;48.158;-1.586;2023-01-30T18:31:12;9.50;81.50
61374;DHT22;47242;48.158;-1.586;2023-01-30T18:33:38;9.40;81.60
61374;DHT22;47242;48.158;-1.586;2023-01-30T18:36:08;9.40;81.30
61374;DHT22;47242;48.158;-1.586;2023-01-30T18:38:34;9.30;81.20
61374;DHT22;47242;48.158;-1.586;2023-01-30T18:41:12;9.30;81.40
61374;DHT22;47242;48.158;-1.586;2023-01-30T18:43:38;9.20;81.20
61374;DHT22;47242;48.158;-1.586;2023-01-30T18:46:07;9.20;81.50
61374;DHT22;47242;48.158;-1.586;2023-01-30T18:48:34;9.20;81.30
61374;DHT22;47242;48.158;-1.586;2023-01-30T18:53:40;9.10;81.30
61374;DHT22;47242;48.158;-1.586;2023-01-30T18:56:07;9.00;81.20
61374;DHT22;47242;48.158;-1.586;2023-01-30T18:58:33;8.90;80.70
61374;DHT22;47242;48.158;-1.586;2023-01-30T19:01:08;8.90;80.80
61374;DHT22;47242;48.158;-1.586;2023-01-30T19:03:34;8.90;81.20
61374;DHT22;47242;48.158;-1.586;2023-01-30T19:06:00;8.90;81.50
61374;DHT22;47242;48.158;-1.586;2023-01-30T19:08:26;8.90;81.30
61374;DHT22;47242;48.158;-1.586;2023-01-30T19:10:51;8.80;81.10
61374;DHT22;47242;48.158;-1.586;2023-01-30T19:13:17;8.80;81.00
61374;DHT22;47242;48.158;-1.586;2023-01-30T19:16:03;8.80;80.80
61374;DHT22;47242;48.158;-1.586;2023-01-30T19:18:30;8.80;81.20
61374;DHT22;47242;48.158;-1.586;2023-01-30T19:21:00;8.80;80.90
61374;DHT22;47242;48.158;-1.586;2023-01-30T19:23:29;8.80;81.20
61374;DHT22;47242;48.158;-1.586;2023-01-30T19:25:57;8.90;81.20
61374;DHT22;47242;48.158;-1.586;2023-01-30T19:28:26;8.90;81.10
61374;DHT22;47242;48.158;-1.586;2023-01-30T19:30:53;9.00;81.20
61374;DHT22;47242;48.158;-1.586;2023-01-30T19:33:18;9.00;81.10
61374;DHT22;47242;48.158;-1.586;2023-01-30T19:35:45;9.00;81.20
61374;DHT22;47242;48.158;-1.586;2023-01-30T19:38:11;9.10;81.20
61374;DHT22;47242;48.158;-1.586;2023-01-30T19:40:44;9.10;81.20
61374;DHT22;47242;48.158;-1.586;2023-01-30T19:43:11;9.20;81.40
61374;DHT22;47242;48.158;-1.586;2023-01-30T19:45:39;9.20;81.30
61374;DHT22;47242;48.158;-1.586;2023-01-30T19:48:06;9.20;81.00
61374;DHT22;47242;48.158;-1.586;2023-01-30T19:50:33;9.20;81.00
61374;DHT22;47242;48.158;-1.586;2023-01-30T19:52:59;9.20;81.10
61374;DHT22;47242;48.158;-1.586;2023-01-30T19:55:24;9.20;80.90
61374;DHT22;47242;48.158;-1.586;2023-01-30T19:57:51;9.20;80.90
61374;DHT22;47242;48.158;-1.586;2023-01-30T20:00:17;9.30;81.00
61374;DHT22;47242;48.158;-1.586;2023-01-30T20:02:42;9.30;80.90
61374;DHT22;47242;48.158;-1.586;2023-01-30T20:05:08;9.40;80.80
61374;DHT22;47242;48.158;-1.586;2023-01-30T20:07:34;9.40;80.90
61374;DHT22;47242;48.158;-1.586;2023-01-30T20:10:03;9.40;80.90
61374;DHT22;47242;48.158;-1.586;2023-01-30T20:12:28;9.40;80.70
61374;DHT22;47242;48.158;-1.586;2023-01-30T20:14:56;9.40;80.70
61374;DHT22;47242;48.158;-1.586;2023-01-30T20:17:22;9.40;80.70
61374;DHT22;47242;48.158;-1.586;2023-01-30T20:19:48;9.40;80.80
61374;DHT22;47242;48.158;-1.586;2023-01-30T20:22:13;9.40;80.70
61374;DHT22;47242;48.158;-1.586;2023-01-30T20:24:39;9.50;80.80
61374;DHT22;47242;48.158;-1.586;2023-01-30T20:27:05;9.40;80.80
61374;DHT22;47242;48.158;-1.586;2023-01-30T20:29:30;9.50;80.80
61374;DHT22;47242;48.158;-1.586;2023-01-30T20:31:56;9.40;80.70
61374;DHT22;47242;48.158;-1.586;2023-01-30T20:34:22;9.40;80.90
61374;DHT22;47242;48.158;-1.586;2023-01-30T20:36:48;9.40;81.00
61374;DHT22;47242;48.158;-1.586;2023-01-30T20:39:14;9.50;81.10
61374;DHT22;47242;48.158;-1.586;2023-01-30T20:41:41;9.50;81.00
61374;DHT22;47242;48.158;-1.586;2023-01-30T20:44:10;9.50;80.90
61374;DHT22;47242;48.158;-1.586;2023-01-30T20:46:41;9.50;81.00
61374;DHT22;47242;48.158;-1.586;2023-01-30T20:49:14;9.50;81.00
61374;DHT22;47242;48.158;-1.586;2023-01-30T20:51:41;9.50;81.00
61374;DHT22;47242;48.158;-1.586;2023-01-30T20:54:08;9.50;81.10
61374;DHT22;47242;48.158;-1.586;2023-01-30T20:56:42;9.50;81.00
61374;DHT22;47242;48.158;-1.586;2023-01-30T20:59:10;9.50;81.10
61374;DHT22;47242;48.158;-1.586;2023-01-30T21:01:36;9.40;81.10
61374;DHT22;47242;48.158;-1.586;2023-01-30T21:04:07;9.50;81.20
61374;DHT22;47242;48.158;-1.586;2023-01-30T21:06:34;9.50;81.10
61374;DHT22;47242;48.158;-1.586;2023-01-30T21:09:00;9.50;81.00
61374;DHT22;47242;48.158;-1.586;2023-01-30T21:11:26;9.60;80.80
61374;DHT22;47242;48.158;-1.586;2023-01-30T21:13:52;9.50;80.80
61374;DHT22;47242;48.158;-1.586;2023-01-30T21:16:26;9.50;80.80
61374;DHT22;47242;48.158;-1.586;2023-01-30T21:18:54;9.50;80.80
61374;DHT22;47242;48.158;-1.586;2023-01-30T21:21:32;9.50;80.80
61374;DHT22;47242;48.158;-1.586;2023-01-30T21:24:01;9.50;80.80
61374;DHT22;47242;48.158;-1.586;2023-01-30T21:26:29;9.50;80.80
61374;DHT22;47242;48.158;-1.586;2023-01-30T21:28:56;9.50;81.00
61374;DHT22;47242;48.158;-1.586;2023-01-30T21:31:24;9.50;80.90
61374;DHT22;47242;48.158;-1.586;2023-01-30T21:33:50;9.50;81.00
61374;DHT22;47242;48.158;-1.586;2023-01-30T21:36:16;9.50;81.10
61374;DHT22;47242;48.158;-1.586;2023-01-30T21:38:41;9.50;81.10
61374;DHT22;47242;48.158;-1.586;2023-01-30T21:41:31;9.50;81.20
61374;DHT22;47242;48.158;-1.586;2023-01-30T21:44:31;9.50;81.10
61374;DHT22;47242;48.158;-1.586;2023-01-30T21:46:57;9.50;81.20
61374;DHT22;47242;48.158;-1.586;2023-01-30T21:49:23;9.50;81.00
61374;DHT22;47242;48.158;-1.586;2023-01-30T21:51:49;9.50;80.90
61374;DHT22;47242;48.158;-1.586;2023-01-30T21:54:16;9.50;80.80
61374;DHT22;47242;48.158;-1.586;2023-01-30T21:56:42;9.50;80.60
61374;DHT22;47242;48.158;-1.586;2023-01-30T21:59:08;9.50;80.40
61374;DHT22;47242;48.158;-1.586;2023-01-30T22:01:38;9.60;80.30
61374;DHT22;47242;48.158;-1.586;2023-01-30T22:04:06;9.50;80.10
61374;DHT22;47242;48.158;-1.586;2023-01-30T22:06:35;9.50;80.10
61374;DHT22;47242;48.158;-1.586;2023-01-30T22:09:02;9.50;80.30
61374;DHT22;47242;48.158;-1.586;2023-01-30T22:11:28;9.50;80.40
61374;DHT22;47242;48.158;-1.586;2023-01-30T22:13:55;9.50;80.40
61374;DHT22;47242;48.158;-1.586;2023-01-30T22:16:26;9.50;80.60
61374;DHT22;47242;48.158;-1.586;2023-01-30T22:18:58;9.40;80.50
61374;DHT22;47242;48.158;-1.586;2023-01-30T22:21:27;9.40;80.70
61374;DHT22;47242;48.158;-1.586;2023-01-30T22:23:54;9.40;80.60
61374;DHT22;47242;48.158;-1.586;2023-01-30T22:26:21;9.30;80.60
61374;DHT22;47242;48.158;-1.586;2023-01-30T22:28:47;9.30;80.70
